Concord, New Hampshire
Current Conditions -  °F | °C
As of 3:51 PM on Saturday 25 Oct 2014 (Local Time) from KCON Reporting Station
Clear Clear  
Wind Chill: 64°   Ceiling: Unl
Heat Index: 64°   Visibility: 10mi
Dew Point: 39°   Wind: 6mph
Humidity: 40%   Direction: NA
Pressure: 29.57"   Gusts: NA
Location:  43.21°N, 71.54°W
Report Text: KCON 251951Z AUTO VRB05KT 10SM CLR 18/04 A2957 RMK AO2 SLP013 T01780039
Loading
Personal Weather Stations






























Interactive Weather Map New forecast layout! Learn more

10-Day Weather Forecast

Advertisements
Track Severe Weather on mobile